Time;durP1;ratioP1;P1;durP2;ratioP2;P2;SDS_P1;SDS_P2;PMS_P1;PMS_P2;Temp;Humidity;BMP_temperature;BMP_pressure;BME280_temperature;BME280_humidity;BME280_pressure;Samples;Min_cycle;Max_cycle;Signal;HPM_P1;HPM_P2
2022/09/07 00:01:07;;;;;;;16.20;4.63;;;;;;;15.77;100.00;98253.34;4893840;29;20043;-82
2022/09/07 00:03:35;;;;;;;13.10;3.60;;;;;;;15.71;100.00;98235.81;4870345;29;20119;-83
2022/09/07 00:06:08;;;;;;;15.65;4.30;;;;;;;15.82;100.00;98250.75;4905496;29;20427;-83
2022/09/07 00:08:34;;;;;;;10.65;3.78;;;;;;;15.73;100.00;98249.63;4892300;29;20386;-82
2022/09/07 00:11:03;;;;;;;16.42;3.88;;;;;;;15.60;100.00;98249.97;4890414;29;20047;-81
2022/09/07 00:13:32;;;;;;;17.73;3.85;;;;;;;15.64;100.00;98256.38;4920457;29;20028;-82
2022/09/07 00:15:58;;;;;;;12.35;3.65;;;;;;;15.56;100.00;98261.06;4911885;29;20036;-82
2022/09/07 00:18:24;;;;;;;18.55;4.10;;;;;;;15.48;100.00;98253.53;4890180;29;20051;-84
2022/09/07 00:20:58;;;;;;;24.40;4.10;;;;;;;15.41;100.00;98245.00;4893022;29;20040;-84
2022/09/07 00:23:24;;;;;;;13.60;4.13;;;;;;;15.40;100.00;98261.91;4889576;29;20037;-83
2022/09/07 00:25:49;;;;;;;14.57;4.13;;;;;;;15.36;100.00;98258.16;4910575;29;20555;-84
2022/09/07 00:28:15;;;;;;;10.02;3.83;;;;;;;15.35;100.00;98267.16;4910623;29;20036;-84
2022/09/07 00:30:41;;;;;;;12.13;3.50;;;;;;;15.33;100.00;98277.13;4890096;29;20032;-84
2022/09/07 00:33:08;;;;;;;19.50;4.47;;;;;;;15.29;100.00;98268.91;4906382;29;20111;-84
2022/09/07 00:35:41;;;;;;;14.43;4.95;;;;;;;15.32;100.00;98268.41;4889090;29;20067;-83
2022/09/07 00:38:06;;;;;;;13.15;4.13;;;;;;;15.25;100.00;98265.94;4907006;29;20119;-83
2022/09/07 00:40:32;;;;;;;16.77;4.40;;;;;;;15.24;100.00;98266.22;4907907;29;20107;-82
2022/09/07 00:42:58;;;;;;;15.15;5.20;;;;;;;15.34;100.00;98271.63;4907852;29;20047;-82
2022/09/07 00:45:24;;;;;;;13.55;3.85;;;;;;;15.45;100.00;98272.53;4892408;29;20091;-82
2022/09/07 00:48:00;;;;;;;11.52;3.92;;;;;;;15.55;100.00;98259.47;4905349;29;20044;-83
2022/09/07 00:50:34;;;;;;;16.10;3.92;;;;;;;15.60;100.00;98265.84;4918777;29;20071;-82
2022/09/07 00:53:16;;;;;;;10.80;3.55;;;;;;;15.52;100.00;98254.63;4886003;29;20487;-83
2022/09/07 00:55:45;;;;;;;16.27;4.00;;;;;;;15.46;100.00;98263.56;4906802;29;20042;-82
2022/09/07 00:58:11;;;;;;;12.88;3.72;;;;;;;15.36;100.00;98256.31;4904348;29;20032;-82
2022/09/07 01:00:39;;;;;;;20.23;4.22;;;;;;;15.30;100.00;98251.19;4902478;29;20036;-83
2022/09/07 01:03:05;;;;;;;18.38;4.22;;;;;;;15.49;100.00;98252.50;4901182;29;20032;-83
2022/09/07 01:05:45;;;;;;;12.63;3.30;;;;;;;15.60;100.00;98244.69;4919552;29;20024;-83
2022/09/07 01:08:12;;;;;;;11.88;3.65;;;;;;;15.67;100.00;98237.34;4909747;29;20115;-83
2022/09/07 01:10:39;;;;;;;8.63;3.00;;;;;;;15.81;100.00;98251.00;4874747;29;20036;-83
2022/09/07 01:13:05;;;;;;;16.52;4.03;;;;;;;15.88;100.00;98246.31;4907273;29;20045;-82
2022/09/07 01:15:51;;;;;;;12.82;3.50;;;;;;;15.91;100.00;98242.41;4903651;29;20351;-81
2022/09/07 01:19:04;;;;;;;13.65;3.30;;;;;;;16.01;100.00;98239.88;4903788;29;20040;-82
2022/09/07 01:21:50;;;;;;;15.27;3.42;;;;;;;15.96;100.00;98239.81;4890458;29;20059;-82
2022/09/07 01:24:29;;;;;;;15.20;3.42;;;;;;;15.96;100.00;98242.47;4905334;29;20040;-82
2022/09/07 01:27:16;;;;;;;12.65;3.15;;;;;;;15.83;100.00;98241.00;4872497;29;20039;-83
2022/09/07 01:29:57;;;;;;;12.27;3.05;;;;;;;15.78;100.00;98249.66;4890358;29;20041;-82
2022/09/07 01:32:43;;;;;;;12.40;3.13;;;;;;;15.77;100.00;98234.84;4884401;29;20090;-83
2022/09/07 01:35:31;;;;;;;10.30;3.20;;;;;;;15.69;100.00;98222.03;4911218;29;20394;-82
2022/09/07 01:38:26;;;;;;;17.63;3.47;;;;;;;15.74;100.00;98229.22;4923830;29;20028;-81
2022/09/07 01:41:08;;;;;;;15.13;3.30;;;;;;;15.73;100.00;98230.28;4886083;29;20039;-84
2022/09/07 01:43:52;;;;;;;10.70;3.30;;;;;;;15.67;100.00;98234.72;4910609;29;20530;-83
2022/09/07 01:46:42;;;;;;;10.20;3.40;;;;;;;15.53;100.00;98229.81;4922064;29;20121;-82
2022/09/07 01:49:42;;;;;;;17.50;3.30;;;;;;;15.47;100.00;98222.84;4896368;29;20554;-81
2022/09/07 01:52:30;;;;;;;14.32;3.55;;;;;;;15.47;100.00;98230.78;4904071;29;20380;-83
2022/09/07 01:55:05;;;;;;;19.63;3.70;;;;;;;15.35;100.00;98230.91;4895947;29;20060;-83
2022/09/07 01:57:39;;;;;;;12.77;4.00;;;;;;;15.40;100.00;98236.25;4907057;29;20475;-84
2022/09/07 02:00:11;;;;;;;13.18;3.60;;;;;;;15.37;100.00;98238.59;4890272;29;20032;-82
2022/09/07 02:02:43;;;;;;;11.80;4.05;;;;;;;15.32;100.00;98220.84;4905802;29;20141;-83
2022/09/07 02:05:22;;;;;;;11.40;3.60;;;;;;;15.37;100.00;98235.97;4920774;29;20037;-82
2022/09/07 02:07:59;;;;;;;18.45;3.72;;;;;;;15.25;100.00;98231.59;4905874;29;20039;-82
2022/09/07 02:10:39;;;;;;;8.00;3.05;;;;;;;15.16;100.00;98222.50;4904784;29;20100;-83
2022/09/07 02:13:14;;;;;;;14.73;3.45;;;;;;;15.17;100.00;98242.59;4902753;29;20032;-83
2022/09/07 02:15:49;;;;;;;7.70;3.13;;;;;;;15.18;100.00;98230.97;4901660;29;20136;-83
2022/09/07 02:18:15;;;;;;;7.95;3.20;;;;;;;15.13;100.00;98222.94;4906239;29;20490;-82
2022/09/07 02:20:46;;;;;;;14.15;3.20;;;;;;;15.12;100.00;98221.34;4908700;29;20132;-83
2022/09/07 02:23:19;;;;;;;12.73;3.55;;;;;;;15.22;100.00;98240.00;4891420;29;20024;-83
2022/09/07 02:25:52;;;;;;;16.35;4.53;;;;;;;15.28;100.00;98235.59;4876027;29;20115;-82
2022/09/07 02:28:25;;;;;;;15.10;3.73;;;;;;;15.41;100.00;98232.56;4884469;29;20080;-82
2022/09/07 02:30:51;;;;;;;18.65;5.40;;;;;;;15.51;100.00;98247.75;4889655;29;20386;-82
2022/09/07 02:33:17;;;;;;;12.77;3.92;;;;;;;15.56;100.00;98242.53;4907114;29;20043;-82
2022/09/07 02:35:43;;;;;;;18.63;5.80;;;;;;;15.71;100.00;98252.50;4902976;29;20430;-81
2022/09/07 02:38:08;;;;;;;18.77;4.78;;;;;;;15.81;100.00;98251.00;4921352;29;20032;-81
2022/09/07 02:40:34;;;;;;;19.55;4.22;;;;;;;15.85;100.00;98255.56;4890481;29;20024;-82
2022/09/07 02:43:05;;;;;;;15.38;4.68;;;;;;;15.94;100.00;98261.22;4890217;29;20098;-81
2022/09/07 02:46:00;;;;;;;16.67;4.30;;;;;;;16.09;100.00;98255.28;4890690;29;20084;-81
2022/09/07 02:48:57;;;;;;;18.45;4.32;;;;;;;16.19;100.00;98248.50;4903484;29;20052;-82
2022/09/07 02:51:43;;;;;;;14.73;4.18;;;;;;;16.23;100.00;98257.53;4906354;29;20032;-82
2022/09/07 02:54:35;;;;;;;20.70;4.30;;;;;;;16.27;100.00;98242.75;4883779;29;20481;-82
2022/09/07 02:57:12;;;;;;;18.00;5.97;;;;;;;16.31;100.00;98245.69;4905258;29;20059;-81
2022/09/07 03:00:04;;;;;;;11.68;4.53;;;;;;;16.23;100.00;98217.81;4908908;29;20478;-82
2022/09/07 03:02:40;;;;;;;15.57;4.30;;;;;;;16.30;100.00;98236.16;4919106;29;20115;-81
2022/09/07 03:05:17;;;;;;;14.48;4.30;;;;;;;16.36;100.00;98238.59;4899084;29;20040;-82
2022/09/07 03:07:48;;;;;;;15.25;4.18;;;;;;;16.33;100.00;98236.47;4908956;29;20546;-81
2022/09/07 03:10:15;;;;;;;14.13;4.47;;;;;;;16.34;100.00;98232.75;4903200;29;20101;-81
2022/09/07 03:12:44;;;;;;;17.10;4.25;;;;;;;16.36;100.00;98229.84;4901190;29;20486;-82
2022/09/07 03:15:15;;;;;;;11.60;3.88;;;;;;;16.44;100.00;98229.41;4902173;29;20051;-81
2022/09/07 03:17:42;;;;;;;12.40;4.40;;;;;;;16.41;100.00;98228.03;4903720;29;20067;-82
2022/09/07 03:20:09;;;;;;;15.43;4.82;;;;;;;16.50;100.00;98219.63;4915529;29;20060;-81
2022/09/07 03:22:34;;;;;;;24.20;5.00;;;;;;;16.42;100.00;98232.28;4905753;29;20060;-82
2022/09/07 03:25:00;;;;;;;14.73;4.40;;;;;;;16.51;100.00;98245.09;4890119;29;20051;-81
2022/09/07 03:27:26;;;;;;;17.80;5.55;;;;;;;16.48;100.00;98246.38;4879939;29;20029;-81
2022/09/07 03:29:51;;;;;;;19.17;5.18;;;;;;;16.56;100.00;98245.13;4891805;29;20035;-82
2022/09/07 03:32:17;;;;;;;17.15;4.85;;;;;;;16.58;100.00;98237.72;4904970;29;20386;-82
2022/09/07 03:34:43;;;;;;;16.42;4.88;;;;;;;16.63;100.00;98239.59;4903439;29;20044;-82
2022/09/07 03:37:08;;;;;;;18.05;4.20;;;;;;;16.57;100.00;98236.09;4913928;29;20065;-82
2022/09/07 03:39:35;;;;;;;18.30;4.15;;;;;;;16.57;100.00;98230.81;4888148;29;20040;-82
2022/09/07 03:42:02;;;;;;;16.85;4.30;;;;;;;16.64;100.00;98239.34;4908058;29;20041;-82
2022/09/07 03:44:28;;;;;;;14.63;4.10;;;;;;;16.56;100.00;98242.47;4906399;29;20550;-82
2022/09/07 03:46:53;;;;;;;17.00;5.18;;;;;;;16.52;100.00;98226.28;4889499;29;20112;-81
2022/09/07 03:49:19;;;;;;;21.38;6.22;;;;;;;16.49;100.00;98233.91;4923001;29;20382;-81
2022/09/07 03:51:45;;;;;;;24.23;5.78;;;;;;;16.33;100.00;98236.47;4907670;29;20032;-82
2022/09/07 03:54:11;;;;;;;24.40;5.72;;;;;;;16.38;100.00;98239.13;4877482;29;20478;-82
2022/09/07 03:56:36;;;;;;;22.38;6.90;;;;;;;16.30;100.00;98221.06;4905970;29;20036;-82
2022/09/07 03:59:02;;;;;;;22.65;7.15;;;;;;;16.16;100.00;98230.47;4907632;29;20036;-81
2022/09/07 04:01:27;;;;;;;18.60;6.03;;;;;;;15.96;100.00;98221.28;4908534;29;20457;-82
2022/09/07 04:03:58;;;;;;;20.63;7.03;;;;;;;16.04;100.00;98231.41;4907229;29;20040;-81
2022/09/07 04:06:24;;;;;;;17.42;6.03;;;;;;;15.99;100.00;98234.03;4911022;29;20565;-82
2022/09/07 04:08:50;;;;;;;16.38;5.82;;;;;;;16.01;100.00;98231.94;4908310;29;20032;-83
2022/09/07 04:11:17;;;;;;;15.48;6.03;;;;;;;15.85;100.00;98230.94;4922237;29;20033;-82
2022/09/07 04:13:44;;;;;;;15.77;5.50;;;;;;;15.78;100.00;98235.63;4922833;29;20119;-82
2022/09/07 04:16:19;;;;;;;16.77;6.10;;;;;;;15.74;100.00;98235.34;4901634;29;20550;-81
2022/09/07 04:18:45;;;;;;;15.80;5.80;;;;;;;15.71;100.00;98233.16;4908850;29;20526;-82
2022/09/07 04:21:12;;;;;;;20.73;6.10;;;;;;;15.64;100.00;98240.50;4884223;29;20053;-82
2022/09/07 04:23:39;;;;;;;19.30;6.10;;;;;;;15.63;100.00;98230.97;4877806;29;20104;-83
2022/09/07 04:26:05;;;;;;;16.88;6.60;;;;;;;15.65;100.00;98242.09;4885232;29;20061;-83
2022/09/07 04:28:30;;;;;;;19.92;6.20;;;;;;;15.63;100.00;98239.72;4889373;29;20033;-83
2022/09/07 04:31:02;;;;;;;24.52;6.70;;;;;;;15.73;100.00;98238.22;4905282;29;20124;-83
2022/09/07 04:33:30;;;;;;;16.80;5.90;;;;;;;15.80;100.00;98238.81;4890236;29;20065;-83
2022/09/07 04:35:58;;;;;;;14.13;5.63;;;;;;;15.80;100.00;98241.47;4891334;29;20485;-83
2022/09/07 04:38:23;;;;;;;17.23;6.07;;;;;;;15.77;100.00;98224.25;4886644;29;20055;-83
2022/09/07 04:40:49;;;;;;;18.80;5.65;;;;;;;15.98;100.00;98241.16;4886101;29;20037;-82
2022/09/07 04:43:14;;;;;;;21.75;6.55;;;;;;;15.95;100.00;98238.22;4893700;29;20032;-83
2022/09/07 04:45:40;;;;;;;23.27;6.80;;;;;;;16.06;100.00;98231.97;4893216;29;20036;-82
2022/09/07 04:48:06;;;;;;;21.35;7.07;;;;;;;16.14;100.00;98228.06;4869310;29;20059;-83
2022/09/07 04:50:32;;;;;;;18.52;6.38;;;;;;;16.19;100.00;98237.91;4887403;29;20068;-83
2022/09/07 04:52:58;;;;;;;18.73;6.72;;;;;;;16.07;100.00;98230.91;4885875;29;20513;-82
2022/09/07 04:55:24;;;;;;;21.52;6.30;;;;;;;16.05;100.00;98240.19;4866728;29;20100;-82
2022/09/07 04:57:53;;;;;;;14.95;6.47;;;;;;;16.04;100.00;98226.13;4876444;29;20028;-82
2022/09/07 05:00:18;;;;;;;23.20;7.25;;;;;;;15.95;100.00;98220.47;4879044;29;20037;-83
2022/09/07 05:02:44;;;;;;;19.70;6.80;;;;;;;16.03;100.00;98235.13;4886132;29;20033;-82
2022/09/07 05:05:10;;;;;;;19.02;6.93;;;;;;;16.08;100.00;98229.88;4879348;29;20052;-82
2022/09/07 05:07:35;;;;;;;20.58;7.95;;;;;;;16.16;100.00;98233.13;4889362;29;20047;-82
2022/09/07 05:10:01;;;;;;;21.38;8.25;;;;;;;16.15;100.00;98234.19;4878248;29;20045;-83
2022/09/07 05:12:28;;;;;;;23.17;8.55;;;;;;;16.23;100.00;98220.47;4888567;29;20049;-82
2022/09/07 05:14:55;;;;;;;20.92;8.65;;;;;;;16.28;100.00;98233.75;4882363;29;20037;-82
2022/09/07 05:17:21;;;;;;;20.00;8.10;;;;;;;16.37;100.00;98234.91;4888185;29;20040;-82
2022/09/07 05:19:47;;;;;;;20.27;9.60;;;;;;;16.34;100.00;98230.09;4901359;29;20407;-82
2022/09/07 05:22:12;;;;;;;23.15;9.32;;;;;;;16.46;100.00;98234.41;4888923;29;20045;-83
2022/09/07 05:24:38;;;;;;;22.95;8.57;;;;;;;16.38;100.00;98223.25;4893367;29;20092;-81
2022/09/07 05:27:03;;;;;;;23.05;9.40;;;;;;;16.42;100.00;98215.59;4868866;29;20037;-81
2022/09/07 05:29:29;;;;;;;21.17;8.80;;;;;;;16.51;100.00;98224.66;4888954;29;20029;-80
2022/09/07 05:31:55;;;;;;;20.58;8.00;;;;;;;16.52;100.00;98223.63;4888684;29;20033;-81
2022/09/07 05:34:21;;;;;;;22.23;9.30;;;;;;;16.45;100.00;98216.94;4881507;29;20044;-81
2022/09/07 05:36:47;;;;;;;22.08;9.25;;;;;;;16.52;100.00;98218.31;4886897;29;20033;-83
2022/09/07 05:39:13;;;;;;;27.98;9.45;;;;;;;16.55;100.00;98228.41;4899889;29;20059;-83
2022/09/07 05:41:38;;;;;;;21.58;8.38;;;;;;;16.62;100.00;98228.19;4888026;29;20069;-81
2022/09/07 05:44:04;;;;;;;21.63;8.50;;;;;;;16.64;100.00;98223.44;4886397;29;20057;-83
2022/09/07 05:46:30;;;;;;;21.70;8.35;;;;;;;16.67;100.00;98230.09;4870331;29;20039;-82
2022/09/07 05:48:56;;;;;;;22.48;8.50;;;;;;;16.75;100.00;98226.94;4868768;29;20057;-83
2022/09/07 05:51:22;;;;;;;25.88;8.82;;;;;;;16.68;100.00;98215.78;4865943;29;20033;-81
2022/09/07 05:53:49;;;;;;;18.08;8.30;;;;;;;16.77;100.00;98213.47;4857914;29;20028;-83
2022/09/07 05:56:15;;;;;;;26.80;8.25;;;;;;;16.81;100.00;98214.53;4883190;29;20059;-83
2022/09/07 05:58:41;;;;;;;22.40;9.55;;;;;;;16.83;100.00;98228.31;4888961;29;20067;-81
2022/09/07 06:01:11;;;;;;;21.60;9.30;;;;;;;16.92;100.00;98236.59;4887506;29;20048;-81
2022/09/07 06:03:38;;;;;;;34.15;9.65;;;;;;;16.95;100.00;98244.03;4855651;29;20075;-83
2022/09/07 06:06:09;;;;;;;27.88;10.85;;;;;;;16.94;100.00;98248.56;4899543;29;20028;-80
2022/09/07 06:08:38;;;;;;;25.92;9.38;;;;;;;16.83;100.00;98236.28;4870798;29;20060;-83
2022/09/07 06:11:07;;;;;;;19.02;9.05;;;;;;;16.81;100.00;98230.44;4883604;29;20028;-84
2022/09/07 06:13:34;;;;;;;22.80;9.18;;;;;;;16.81;100.00;98241.03;4871350;29;20128;-82
2022/09/07 06:16:01;;;;;;;25.73;9.20;;;;;;;16.92;100.00;98250.66;4873005;29;20112;-84
2022/09/07 06:18:35;;;;;;;23.95;10.23;;;;;;;16.89;100.00;98240.56;4869713;29;20483;-83
2022/09/07 06:21:08;;;;;;;29.23;9.32;;;;;;;16.94;100.00;98248.56;4898988;29;20068;-84
2022/09/07 06:23:36;;;;;;;23.98;8.48;;;;;;;17.04;100.00;98255.81;4881111;29;20428;-81
2022/09/07 06:26:02;;;;;;;20.73;8.80;;;;;;;17.05;100.00;98235.38;4863723;29;20423;-83
2022/09/07 06:28:36;;;;;;;20.83;8.63;;;;;;;17.17;100.00;98246.59;4868666;29;20108;-82
2022/09/07 06:31:07;;;;;;;20.75;8.55;;;;;;;17.32;100.00;98247.72;4881269;29;20084;-82
2022/09/07 06:33:34;;;;;;;24.67;8.70;;;;;;;17.33;100.00;98236.84;4867800;29;20085;-83
2022/09/07 06:36:02;;;;;;;22.92;8.15;;;;;;;17.40;100.00;98241.91;4897481;29;20041;-84
2022/09/07 06:38:29;;;;;;;20.23;8.95;;;;;;;17.33;100.00;98244.03;4884836;29;20028;-83
2022/09/07 06:41:03;;;;;;;21.42;9.35;;;;;;;17.36;100.00;98240.84;4886813;29;20115;-83
2022/09/07 06:43:29;;;;;;;22.90;9.90;;;;;;;17.28;100.00;98236.81;4884874;29;20051;-82
2022/09/07 06:45:55;;;;;;;25.38;11.10;;;;;;;17.27;100.00;98243.19;4886558;29;20031;-80
2022/09/07 06:48:21;;;;;;;26.25;12.05;;;;;;;17.12;100.00;98222.72;4889147;29;20025;-80
2022/09/07 06:51:02;;;;;;;21.48;11.20;;;;;;;17.23;100.00;98237.59;4885274;29;20036;-79
2022/09/07 06:53:32;;;;;;;19.80;11.15;;;;;;;17.18;100.00;98242.88;4883868;29;20542;-82
2022/09/07 06:55:59;;;;;;;18.63;11.15;;;;;;;17.18;100.00;98240.22;4873937;29;20177;-81
2022/09/07 06:58:25;;;;;;;21.50;13.27;;;;;;;17.04;100.00;98226.63;4888180;29;20057;-82
2022/09/07 07:00:51;;;;;;;21.38;13.25;;;;;;;17.16;100.00;98236.22;4888847;29;20454;-81
2022/09/07 07:03:16;;;;;;;28.33;15.02;;;;;;;17.05;100.00;98224.78;4887245;29;20033;-82
2022/09/07 07:05:50;;;;;;;27.13;13.90;;;;;;;17.18;100.00;98226.16;4880760;29;20029;-83
2022/09/07 07:08:16;;;;;;;24.00;14.50;;;;;;;17.27;100.00;98228.06;4865330;29;20392;-83
2022/09/07 07:10:41;;;;;;;25.25;14.93;;;;;;;17.27;100.00;98222.75;4890651;29;20039;-82
2022/09/07 07:13:08;;;;;;;27.48;15.00;;;;;;;17.41;100.00;98238.22;4887036;29;20480;-82
2022/09/07 07:15:34;;;;;;;29.00;16.73;;;;;;;17.37;100.00;98231.81;4882377;29;20044;-81
2022/09/07 07:17:59;;;;;;;28.48;16.30;;;;;;;17.39;100.00;98232.38;4901833;29;20040;-81
2022/09/07 07:20:25;;;;;;;24.92;16.33;;;;;;;17.49;100.00;98224.47;4887047;29;20055;-82
2022/09/07 07:22:51;;;;;;;25.30;15.85;;;;;;;17.71;100.00;98236.72;4884564;29;20066;-81
2022/09/07 07:25:23;;;;;;;28.50;16.85;;;;;;;17.75;100.00;98243.09;4884352;29;20036;-82
2022/09/07 07:27:48;;;;;;;26.45;16.33;;;;;;;17.71;100.00;98215.50;4869631;29;20061;-82
2022/09/07 07:30:16;;;;;;;29.88;15.55;;;;;;;17.96;100.00;98243.16;4885466;29;20038;-83
2022/09/07 07:32:43;;;;;;;25.15;14.02;;;;;;;17.93;100.00;98228.53;4869526;29;20040;-81
2022/09/07 07:35:09;;;;;;;24.13;13.73;;;;;;;17.98;100.00;98241.03;4864665;29;20474;-81
2022/09/07 07:37:36;;;;;;;21.08;14.00;;;;;;;17.95;100.00;98228.28;4864019;29;20178;-80
2022/09/07 07:40:07;;;;;;;27.50;13.63;;;;;;;18.02;100.00;98234.16;4866269;29;20407;-80
2022/09/07 07:42:35;;;;;;;20.42;12.07;;;;;;;18.05;100.00;98233.63;4897895;29;20029;-80
2022/09/07 07:45:01;;;;;;;26.08;12.90;;;;;;;18.11;100.00;98229.94;4868260;29;20029;-80
2022/09/07 07:47:40;;;;;;;20.73;12.15;;;;;;;18.32;100.00;98214.00;4901214;29;20175;-80
2022/09/07 07:50:07;;;;;;;22.70;11.35;;;;;;;18.54;100.00;98234.19;4886024;29;20029;-81
2022/09/07 07:52:37;;;;;;;18.58;11.70;;;;;;;18.61;100.00;98225.97;4882212;29;20170;-81
2022/09/07 07:55:04;;;;;;;22.45;11.32;;;;;;;18.65;100.00;98221.69;4883012;29;20040;-81
2022/09/07 07:57:30;;;;;;;19.42;10.65;;;;;;;18.91;100.00;98224.28;4869923;29;20029;-80
2022/09/07 07:59:56;;;;;;;15.63;10.25;;;;;;;19.03;100.00;98222.19;4903860;29;20510;-82
2022/09/07 08:02:22;;;;;;;17.35;9.50;;;;;;;18.89;100.00;98221.13;4887967;29;20032;-84
2022/09/07 08:04:48;;;;;;;18.45;9.30;;;;;;;18.93;100.00;98230.13;4887156;29;20032;-82
2022/09/07 08:07:14;;;;;;;19.58;9.63;;;;;;;19.05;100.00;98236.00;4864503;29;20036;-83
2022/09/07 08:09:42;;;;;;;16.38;8.68;;;;;;;19.17;100.00;98222.41;4865259;29;20032;-84
2022/09/07 08:12:11;;;;;;;16.38;8.25;;;;;;;19.38;100.00;98219.66;4906363;29;20569;-83
2022/09/07 08:14:39;;;;;;;14.20;8.65;;;;;;;19.59;100.00;98227.56;4884246;29;20048;-83
2022/09/07 08:17:06;;;;;;;13.25;7.78;;;;;;;19.98;100.00;98237.47;4885349;29;20061;-81
2022/09/07 08:19:35;;;;;;;18.30;8.10;;;;;;;20.24;100.00;98238.09;4855194;29;20032;-82
2022/09/07 08:22:01;;;;;;;16.52;6.90;;;;;;;20.36;100.00;98235.06;4900868;29;20040;-83
2022/09/07 08:24:26;;;;;;;13.45;6.63;;;;;;;20.64;100.00;98243.38;4893534;29;20205;-83
2022/09/07 08:26:52;;;;;;;11.93;6.82;;;;;;;20.66;100.00;98232.44;4871756;29;20108;-82
2022/09/07 08:29:17;;;;;;;14.18;6.78;;;;;;;20.67;100.00;98239.34;4902767;29;20105;-83
2022/09/07 08:31:43;;;;;;;16.42;6.07;;;;;;;20.81;100.00;98251.00;4906723;29;20052;-83
2022/09/07 08:34:10;;;;;;;9.95;5.78;;;;;;;21.06;100.00;98245.69;4907423;29;20032;-83
2022/09/07 08:36:35;;;;;;;12.98;6.97;;;;;;;21.10;100.00;98252.81;4890338;29;20099;-83
2022/09/07 08:39:04;;;;;;;12.15;6.57;;;;;;;21.20;100.00;98235.13;4888734;29;20040;-83
2022/09/07 08:41:59;;;;;;;13.63;5.68;;;;;;;21.25;100.00;98259.88;4884452;29;20136;-82
2022/09/07 08:44:37;;;;;;;17.50;6.43;;;;;;;20.88;100.00;98252.53;4890416;29;20033;-82
2022/09/07 08:47:25;;;;;;;12.05;5.50;;;;;;;20.74;100.00;98249.69;4873038;29;20414;-83
2022/09/07 08:50:03;;;;;;;16.00;6.13;;;;;;;20.34;100.00;98253.22;4890938;29;20119;-83
2022/09/07 08:52:46;;;;;;;13.20;5.80;;;;;;;20.82;100.00;98257.91;4887387;29;20180;-82
2022/09/07 08:55:19;;;;;;;14.48;5.50;;;;;;;21.13;100.00;98248.78;4888395;29;20037;-82
2022/09/07 08:57:54;;;;;;;15.73;5.80;;;;;;;21.41;100.00;98259.69;4919908;29;20032;-83
2022/09/07 09:00:20;;;;;;;13.63;5.15;;;;;;;21.35;100.00;98263.50;4903501;29;20028;-83
2022/09/07 09:02:46;;;;;;;11.75;5.07;;;;;;;21.14;100.00;98261.06;4889185;29;20503;-83
2022/09/07 09:05:39;;;;;;;11.85;5.05;;;;;;;21.11;100.00;98264.31;4900158;29;20035;-83
2022/09/07 09:08:30;;;;;;;17.02;5.15;;;;;;;21.19;100.00;98261.00;4873974;29;20036;-84
2022/09/07 09:11:15;;;;;;;14.82;5.43;;;;;;;21.18;100.00;98248.72;4876159;29;20044;-84
2022/09/07 09:13:50;;;;;;;12.18;4.50;;;;;;;21.23;100.00;98256.69;4892946;29;20043;-83
2022/09/07 09:16:46;;;;;;;14.00;4.43;;;;;;;21.72;100.00;98240.63;4885972;29;20044;-84
2022/09/07 09:19:27;;;;;;;11.48;3.92;;;;;;;22.26;100.00;98254.56;4903006;29;20068;-84
2022/09/07 09:22:28;;;;;;;11.98;4.00;;;;;;;22.33;100.00;98245.38;4865984;29;20058;-86
2022/09/07 09:25:12;;;;;;;9.20;3.75;;;;;;;22.36;100.00;98258.16;4863524;29;20536;-84
2022/09/07 09:27:38;;;;;;;12.07;3.42;;;;;;;22.38;100.00;98266.69;4886876;29;20051;-83
2022/09/07 09:30:25;;;;;;;8.50;3.30;;;;;;;22.53;100.00;98260.31;4885962;29;20530;-83
2022/09/07 09:33:10;;;;;;;9.27;3.75;;;;;;;22.20;100.00;98245.03;4890040;29;20471;-83
2022/09/07 09:35:38;;;;;;;11.85;3.20;;;;;;;21.89;100.00;98244.69;4903293;29;20028;-83
2022/09/07 09:38:04;;;;;;;10.98;4.05;;;;;;;21.83;100.00;98247.44;4890322;29;20036;-84
2022/09/07 09:40:30;;;;;;;8.77;3.67;;;;;;;21.88;100.00;98251.91;4887781;29;20032;-83
2022/09/07 09:43:18;;;;;;;11.30;4.18;;;;;;;21.57;100.00;98259.50;4891811;29;20504;-84
2022/09/07 09:45:49;;;;;;;10.55;3.38;;;;;;;21.42;100.00;98257.81;4883319;29;20033;-83
2022/09/07 09:48:26;;;;;;;10.95;3.58;;;;;;;21.55;100.00;98255.25;4921442;29;20036;-84
2022/09/07 09:50:55;;;;;;;9.07;3.92;;;;;;;21.67;100.00;98264.75;4892754;29;20037;-85
2022/09/07 09:53:25;;;;;;;13.00;4.47;;;;;;;21.72;100.00;98258.56;4876116;29;20040;-83
2022/09/07 09:55:52;;;;;;;12.60;4.35;;;;;;;22.12;100.00;98248.38;4882437;29;20487;-83
2022/09/07 09:58:31;;;;;;;17.30;4.25;;;;;;;22.37;100.00;98255.19;4905666;29;20040;-83
2022/09/07 10:01:05;;;;;;;10.13;3.35;;;;;;;22.68;100.00;98254.72;4889534;29;20131;-83
2022/09/07 10:03:33;;;;;;;12.90;3.60;;;;;;;22.87;100.00;98261.88;4901914;29;20040;-83
2022/09/07 10:06:08;;;;;;;9.30;3.35;;;;;;;22.58;100.00;98243.41;4908133;29;20028;-84
2022/09/07 10:08:35;;;;;;;11.18;3.83;;;;;;;22.29;100.00;98242.50;4889996;29;20123;-83
2022/09/07 10:11:11;;;;;;;10.55;3.78;;;;;;;22.13;100.00;98249.16;4890151;29;20040;-82
2022/09/07 10:13:51;;;;;;;12.50;3.60;;;;;;;22.21;100.00;98257.31;4903670;29;20034;-83
2022/09/07 10:16:17;;;;;;;13.80;3.58;;;;;;;22.18;100.00;98252.56;4920277;29;20047;-84
2022/09/07 10:18:55;;;;;;;11.20;3.40;;;;;;;22.53;100.00;98245.09;4890892;29;20115;-83
2022/09/07 10:21:25;;;;;;;8.65;3.10;;;;;;;22.52;100.00;98240.81;4912115;29;20076;-82
2022/09/07 10:24:11;;;;;;;10.95;3.33;;;;;;;22.40;100.00;98243.94;4884989;29;20040;-84
2022/09/07 10:26:38;;;;;;;9.57;3.25;;;;;;;22.71;100.00;98236.50;4882227;29;20039;-83
2022/09/07 10:29:15;;;;;;;16.33;3.85;;;;;;;22.74;100.00;98231.34;4886318;29;20028;-83
2022/09/07 10:32:01;;;;;;;8.80;3.53;;;;;;;22.31;100.00;98213.59;4890196;29;20037;-82
2022/09/07 10:35:05;;;;;;;11.20;2.90;;;;;;;22.45;100.00;98229.66;4897904;29;20032;-82
2022/09/07 10:37:44;;;;;;;12.23;3.20;;;;;;;22.14;100.00;98230.16;4865243;29;20507;-82
2022/09/07 10:40:38;;;;;;;10.55;3.30;;;;;;;22.16;100.00;98227.19;4898214;29;20033;-82
2022/09/07 10:43:10;;;;;;;11.35;3.17;;;;;;;22.30;100.00;98230.72;4885101;29;20036;-82
2022/09/07 10:45:47;;;;;;;16.33;4.22;;;;;;;22.17;100.00;98234.94;4897392;29;20114;-82
2022/09/07 10:48:24;;;;;;;10.00;3.40;;;;;;;22.16;100.00;98227.19;4882628;29;20487;-82
2022/09/07 10:50:55;;;;;;;11.85;3.22;;;;;;;22.37;100.00;98228.44;4881527;29;20044;-82
2022/09/07 10:53:30;;;;;;;11.38;3.58;;;;;;;22.56;100.00;98232.22;4872976;29;20037;-82
2022/09/07 10:55:59;;;;;;;10.13;3.35;;;;;;;22.69;100.00;98223.41;4865842;29;20530;-81
2022/09/07 10:58:31;;;;;;;11.70;3.53;;;;;;;22.56;100.00;98224.97;4870531;29;20044;-82
2022/09/07 11:01:14;;;;;;;13.93;3.67;;;;;;;22.61;100.00;98227.56;4883987;29;20047;-81
2022/09/07 11:03:58;;;;;;;9.88;3.45;;;;;;;22.39;100.00;98231.63;4882303;29;20109;-82
2022/09/07 11:06:31;;;;;;;12.52;3.53;;;;;;;22.18;100.00;98231.16;4867400;29;20033;-82
2022/09/07 11:09:35;;;;;;;11.38;3.33;;;;;;;22.38;100.00;98230.03;4866499;29;20028;-83
2022/09/07 11:12:18;;;;;;;14.95;4.07;;;;;;;22.44;100.00;98216.59;4880363;29;20040;-83
2022/09/07 11:14:51;;;;;;;12.13;3.40;;;;;;;22.66;100.00;98230.16;4882341;29;20506;-81
2022/09/07 11:17:25;;;;;;;10.18;3.00;;;;;;;22.77;100.00;98224.59;4885152;29;20040;-82
2022/09/07 11:20:00;;;;;;;9.02;3.05;;;;;;;23.10;100.00;98233.38;4885241;29;20070;-82
2022/09/07 11:22:32;;;;;;;12.95;4.10;;;;;;;23.54;100.00;98223.13;4918618;29;20044;-82
2022/09/07 11:25:04;;;;;;;10.05;3.03;;;;;;;23.77;100.00;98225.84;4901701;29;20108;-82
2022/09/07 11:27:46;;;;;;;12.40;3.47;;;;;;;23.35;100.00;98201.84;4908063;29;20040;-82
2022/09/07 11:30:21;;;;;;;12.25;3.58;;;;;;;23.43;100.00;98181.59;4903345;29;20088;-81
2022/09/07 11:32:54;;;;;;;11.27;3.60;;;;;;;23.59;100.00;98208.06;4902121;29;20040;-82
2022/09/07 11:35:27;;;;;;;11.88;3.08;;;;;;;23.81;100.00;98196.56;4886318;29;20040;-83
2022/09/07 11:38:02;;;;;;;14.93;3.60;;;;;;;23.59;100.00;98157.94;4888301;29;20028;-83